Time;durP1;ratioP1;P1;durP2;ratioP2;P2;SDS_P1;SDS_P2;PMS_P1;PMS_P2;Temp;Humidity;BMP_temperature;BMP_pressure;BME280_temperature;BME280_humidity;BME280_pressure;Samples;Min_cycle;Max_cycle;Signal;HPM_P1;HPM_P2
2022/09/03 00:01:04;;;;;;;5.57;4.27;;;16.30;97.00;;;;;;5062332;28;20578;-74
2022/09/03 00:03:43;;;;;;;5.70;4.10;;;16.20;97.50;;;;;;5066111;28;20331;-75
2022/09/03 00:06:29;;;;;;;4.97;4.57;;;16.20;97.80;;;;;;5077812;28;20233;-74
2022/09/03 00:09:06;;;;;;;7.87;5.03;;;16.10;98.10;;;;;;5085662;28;20192;-74
2022/09/03 00:11:46;;;;;;;5.07;4.57;;;16.00;98.70;;;;;;5081361;28;20679;-73
2022/09/03 00:14:39;;;;;;;6.50;4.50;;;16.00;99.20;;;;;;5066614;28;20203;-74
2022/09/03 00:17:13;;;;;;;7.37;4.60;;;15.90;99.80;;;;;;5067262;28;20209;-74
2022/09/03 00:19:56;;;;;;;5.60;4.97;;;15.80;99.90;;;;;;5062941;28;20230;-74
2022/09/03 00:22:28;;;;;;;6.67;4.83;;;15.70;99.90;;;;;;5065472;28;20225;-73
2022/09/03 00:24:59;;;;;;;11.17;4.77;;;15.70;99.90;;;;;;5081814;28;20214;-74
2022/09/03 00:27:28;;;;;;;5.03;4.57;;;15.60;99.90;;;;;;5062271;28;20754;-74
2022/09/03 00:30:14;;;;;;;5.37;4.50;;;15.60;99.90;;;;;;5083532;28;20269;-73
2022/09/03 00:32:55;;;;;;;6.20;4.23;;;15.50;99.90;;;;;;5080778;28;20211;-73
2022/09/03 00:35:31;;;;;;;12.10;6.30;;;15.50;99.90;;;;;;5082975;28;20207;-75
2022/09/03 00:37:59;;;;;;;6.23;4.40;;;15.40;99.90;;;;;;5064490;28;20234;-74
2022/09/03 00:40:41;;;;;;;6.50;4.53;;;15.40;99.90;;;;;;5080735;28;20232;-73
2022/09/03 00:43:45;;;;;;;7.57;4.53;;;15.30;99.90;;;;;;5084018;28;20295;-72
2022/09/03 00:46:30;;;;;;;5.90;4.93;;;15.30;99.90;;;;;;5081749;28;20538;-75
2022/09/03 00:49:15;;;;;;;8.73;5.10;;;15.20;99.90;;;;;;5086735;28;20212;-73
2022/09/03 00:52:23;;;;;;;6.57;5.53;;;15.20;99.90;;;;;;5079232;28;20564;-75
2022/09/03 00:55:17;;;;;;;7.23;5.13;;;15.10;99.90;;;;;;5065867;28;20200;-73
2022/09/03 00:58:08;;;;;;;7.40;6.17;;;15.00;99.90;;;;;;5082868;28;20243;-73
2022/09/03 01:00:41;;;;;;;9.53;5.80;;;15.00;99.90;;;;;;5083163;28;20324;-73
2022/09/03 01:03:27;;;;;;;8.67;5.33;;;14.90;99.90;;;;;;5080714;28;20264;-74
2022/09/03 01:06:39;;;;;;;5.87;5.33;;;14.90;99.90;;;;;;5081231;28;20285;-73
2022/09/03 01:09:38;;;;;;;5.97;4.93;;;14.80;99.90;;;;;;5080711;28;20211;-72
2022/09/03 01:12:33;;;;;;;8.53;5.30;;;14.80;99.90;;;;;;5064338;28;20581;-73
2022/09/03 01:15:09;;;;;;;7.77;5.00;;;14.70;99.90;;;;;;5080900;28;20320;-75
2022/09/03 01:17:58;;;;;;;5.73;5.03;;;14.60;99.90;;;;;;5079243;28;20213;-72
2022/09/03 01:20:45;;;;;;;5.10;4.57;;;14.60;99.90;;;;;;5082868;28;20691;-74
2022/09/03 01:23:19;;;;;;;5.40;4.97;;;14.70;99.90;;;;;;5080791;28;20253;-73
2022/09/03 01:25:51;;;;;;;6.13;5.33;;;14.60;99.90;;;;;;5067495;28;20206;-74
2022/09/03 01:28:53;;;;;;;6.33;5.47;;;14.50;99.90;;;;;;5080848;28;20206;-73
2022/09/03 01:32:00;;;;;;;7.77;5.60;;;14.40;99.90;;;;;;5079846;28;20646;-73
2022/09/03 01:34:56;;;;;;;8.90;6.30;;;14.40;99.90;;;;;;5082898;28;20223;-73
2022/09/03 01:37:41;;;;;;;7.77;5.90;;;14.30;99.90;;;;;;5064221;28;20226;-73
2022/09/03 01:40:11;;;;;;;6.73;6.10;;;14.30;99.90;;;;;;5080158;28;20276;-73
2022/09/03 01:42:53;;;;;;;6.43;5.20;;;14.20;99.90;;;;;;5079219;28;20215;-73
2022/09/03 01:45:39;;;;;;;6.13;5.63;;;14.20;99.90;;;;;;5061143;28;20328;-73
2022/09/03 01:48:25;;;;;;;7.23;5.70;;;14.20;99.90;;;;;;5088013;28;20203;-73
2022/09/03 01:51:07;;;;;;;6.93;5.67;;;14.20;99.90;;;;;;5068480;28;20214;-73
2022/09/03 01:54:11;;;;;;;7.37;5.77;;;14.10;99.90;;;;;;5060845;28;20712;-74
2022/09/03 01:56:59;;;;;;;10.67;5.63;;;14.10;99.90;;;;;;5064639;28;20298;-73
2022/09/03 01:59:41;;;;;;;6.00;5.50;;;14.10;99.90;;;;;;5080220;28;20217;-73
2022/09/03 02:02:20;;;;;;;6.30;5.77;;;14.00;99.90;;;;;;5081600;28;20549;-74
2022/09/03 02:05:08;;;;;;;9.60;5.50;;;14.00;99.90;;;;;;5080491;28;20714;-73
2022/09/03 02:07:39;;;;;;;6.57;5.33;;;14.00;99.90;;;;;;5067144;28;20282;-73
2022/09/03 02:10:35;;;;;;;6.40;5.80;;;14.00;99.90;;;;;;5079756;28;20206;-73
2022/09/03 02:13:10;;;;;;;5.63;5.10;;;13.90;99.90;;;;;;5079678;28;20307;-74
2022/09/03 02:15:42;;;;;;;7.73;5.57;;;13.90;99.90;;;;;;5067585;28;20314;-73
2022/09/03 02:18:32;;;;;;;6.53;5.77;;;13.80;99.90;;;;;;5080093;28;20634;-73
2022/09/03 02:20:59;;;;;;;6.53;5.93;;;13.80;99.90;;;;;;5079093;28;20687;-73
2022/09/03 02:23:27;;;;;;;7.33;6.07;;;13.80;99.90;;;;;;5082419;28;20214;-74
2022/09/03 02:25:57;;;;;;;9.40;5.70;;;13.80;99.90;;;;;;5080199;28;20667;-73
2022/09/03 02:28:26;;;;;;;6.23;5.60;;;13.70;99.90;;;;;;5061070;28;20208;-72
2022/09/03 02:30:54;;;;;;;8.30;6.47;;;13.70;99.90;;;;;;5078195;28;20212;-73
2022/09/03 02:33:21;;;;;;;7.87;6.13;;;13.80;99.90;;;;;;5068755;28;20255;-74
2022/09/03 02:35:48;;;;;;;9.43;6.43;;;13.60;99.90;;;;;;5060899;28;20222;-73
2022/09/03 02:38:25;;;;;;;7.80;5.70;;;13.60;99.90;;;;;;5083131;28;20203;-73
2022/09/03 02:40:53;;;;;;;5.97;5.47;;;13.50;99.90;;;;;;5083999;28;20600;-75
2022/09/03 02:43:23;;;;;;;6.07;5.57;;;13.50;99.90;;;;;;5067349;28;20218;-73
2022/09/03 02:45:56;;;;;;;7.83;6.00;;;13.50;99.90;;;;;;5080366;28;20211;-72
2022/09/03 02:48:24;;;;;;;6.27;5.70;;;13.40;99.90;;;;;;5069970;28;20223;-74
2022/09/03 02:50:51;;;;;;;7.80;5.67;;;13.40;99.90;;;;;;5069660;28;20211;-73
2022/09/03 02:53:19;;;;;;;9.00;6.30;;;13.30;99.90;;;;;;5083586;28;20259;-75
2022/09/03 02:55:46;;;;;;;6.27;5.67;;;13.30;99.90;;;;;;5084891;28;20206;-73
2022/09/03 02:58:13;;;;;;;6.23;5.67;;;13.20;99.90;;;;;;5084565;28;20608;-74
2022/09/03 03:00:40;;;;;;;6.73;6.10;;;13.20;99.90;;;;;;5064683;28;20550;-73
2022/09/03 03:03:07;;;;;;;7.60;6.13;;;13.20;99.90;;;;;;5083617;28;20238;-74
2022/09/03 03:05:47;;;;;;;6.60;5.93;;;13.10;99.90;;;;;;5084146;28;20650;-73
2022/09/03 03:08:15;;;;;;;8.33;6.60;;;13.10;99.90;;;;;;5081368;28;20728;-73
2022/09/03 03:10:50;;;;;;;6.40;5.73;;;13.00;99.90;;;;;;5067516;28;20213;-73
2022/09/03 03:13:17;;;;;;;9.00;6.23;;;13.00;99.90;;;;;;5082108;28;20210;-74
2022/09/03 03:15:46;;;;;;;6.37;5.77;;;13.00;99.90;;;;;;5086172;28;20217;-71
2022/09/03 03:18:16;;;;;;;7.20;6.03;;;13.00;99.90;;;;;;5071279;28;20782;-72
2022/09/03 03:20:43;;;;;;;6.00;5.40;;;13.00;99.90;;;;;;5069241;28;20232;-72
2022/09/03 03:23:10;;;;;;;6.30;5.70;;;12.90;99.90;;;;;;5070660;28;20233;-73
2022/09/03 03:25:38;;;;;;;7.57;6.87;;;13.00;99.90;;;;;;5085960;28;20964;-73
2022/09/03 03:28:06;;;;;;;7.07;6.37;;;12.90;99.90;;;;;;5082466;28;20741;-73
2022/09/03 03:30:38;;;;;;;6.83;6.23;;;12.90;99.90;;;;;;5082350;28;20205;-73
2022/09/03 03:33:06;;;;;;;7.37;6.13;;;12.90;99.90;;;;;;5084628;28;20278;-73
2022/09/03 03:35:35;;;;;;;6.83;6.13;;;12.80;99.90;;;;;;5082675;28;20657;-71
2022/09/03 03:38:03;;;;;;;7.47;6.77;;;12.80;99.90;;;;;;5085529;28;20757;-72
2022/09/03 03:40:31;;;;;;;8.50;6.23;;;12.80;99.90;;;;;;5068759;28;20239;-73
2022/09/03 03:42:58;;;;;;;7.93;6.83;;;12.70;99.90;;;;;;5071521;28;20610;-73
2022/09/03 03:45:26;;;;;;;7.60;6.20;;;12.70;99.90;;;;;;5064696;28;20729;-73
2022/09/03 03:47:57;;;;;;;7.23;6.53;;;12.70;99.90;;;;;;5090265;28;20282;-72
2022/09/03 03:50:28;;;;;;;7.60;7.00;;;12.70;99.90;;;;;;5085296;28;20246;-73
2022/09/03 03:52:59;;;;;;;8.03;7.23;;;12.60;99.90;;;;;;5084986;28;20307;-72
2022/09/03 03:55:27;;;;;;;8.17;7.00;;;12.60;99.90;;;;;;5081954;28;20771;-72
2022/09/03 03:57:58;;;;;;;7.67;6.83;;;12.60;99.90;;;;;;5085208;28;20215;-72
2022/09/03 04:00:29;;;;;;;7.53;6.90;;;12.50;99.90;;;;;;5079893;28;20210;-73
2022/09/03 04:02:57;;;;;;;9.60;6.50;;;12.50;99.90;;;;;;5067014;28;20665;-73
2022/09/03 04:05:24;;;;;;;7.90;7.10;;;12.50;99.90;;;;;;5083194;28;20213;-73
2022/09/03 04:07:52;;;;;;;8.43;7.10;;;12.40;99.90;;;;;;5083255;28;20217;-73
2022/09/03 04:10:19;;;;;;;8.10;7.23;;;12.40;99.90;;;;;;5082243;28;20340;-73
2022/09/03 04:12:46;;;;;;;10.20;7.40;;;12.40;99.90;;;;;;5070115;28;20221;-72
2022/09/03 04:15:15;;;;;;;7.50;6.77;;;12.40;99.90;;;;;;5082568;28;20622;-74
2022/09/03 04:17:43;;;;;;;7.70;6.50;;;12.30;99.90;;;;;;5081933;28;20214;-73
2022/09/03 04:20:09;;;;;;;7.27;6.57;;;12.40;99.90;;;;;;5083961;28;20286;-73
2022/09/03 04:22:36;;;;;;;7.77;6.90;;;12.30;99.90;;;;;;5082284;28;20242;-73
2022/09/03 04:25:04;;;;;;;7.97;6.77;;;12.30;99.90;;;;;;5084878;28;20200;-72
2022/09/03 04:27:31;;;;;;;7.43;6.67;;;12.30;99.90;;;;;;5070006;28;20213;-73
2022/09/03 04:29:58;;;;;;;9.90;7.03;;;12.30;99.90;;;;;;5083664;28;20262;-73
2022/09/03 04:35:11;;;;;;;7.77;7.07;;;12.20;99.90;;;;;;5083495;28;20587;-72
2022/09/03 04:37:39;;;;;;;8.67;6.70;;;12.20;99.90;;;;;;5062833;28;20229;-73
2022/09/03 04:40:06;;;;;;;8.43;7.10;;;12.20;99.90;;;;;;5084191;28;20212;-73
2022/09/03 04:42:33;;;;;;;8.73;7.17;;;12.20;99.90;;;;;;5076159;28;20323;-73
2022/09/03 04:45:01;;;;;;;8.13;6.97;;;12.20;99.90;;;;;;5081866;28;20298;-72
2022/09/03 04:47:28;;;;;;;8.53;7.33;;;12.20;99.90;;;;;;5068234;28;20251;-72
2022/09/03 04:49:54;;;;;;;7.87;7.07;;;12.10;99.90;;;;;;5087449;28;20224;-72
2022/09/03 04:52:24;;;;;;;8.37;7.40;;;12.10;99.90;;;;;;5065058;28;20209;-74
2022/09/03 04:54:51;;;;;;;8.37;7.67;;;12.10;99.90;;;;;;5079921;28;20204;-72
2022/09/03 04:57:18;;;;;;;10.50;6.47;;;12.10;99.90;;;;;;5080509;28;20671;-73
2022/09/03 04:59:46;;;;;;;7.90;7.13;;;12.10;99.90;;;;;;5066863;28;20219;-72
2022/09/03 05:02:13;;;;;;;8.27;7.30;;;12.00;99.90;;;;;;5064658;28;20950;-72
2022/09/03 05:04:41;;;;;;;8.93;7.03;;;12.10;99.90;;;;;;5064062;28;20706;-74
2022/09/03 05:07:08;;;;;;;8.03;7.33;;;12.00;99.90;;;;;;5063715;28;20260;-72
2022/09/03 05:09:35;;;;;;;7.73;6.87;;;12.10;99.90;;;;;;5066210;28;20209;-73
2022/09/03 05:12:02;;;;;;;7.80;7.10;;;12.00;99.90;;;;;;5083763;28;20284;-73
2022/09/03 05:14:29;;;;;;;9.73;7.37;;;12.10;99.90;;;;;;5083987;28;20201;-73
2022/09/03 05:16:56;;;;;;;6.67;6.07;;;12.10;99.90;;;;;;5081439;28;20567;-72
2022/09/03 05:19:23;;;;;;;9.73;6.93;;;12.10;99.90;;;;;;5063076;28;20685;-71
2022/09/03 05:21:50;;;;;;;9.00;7.10;;;12.10;99.90;;;;;;5064006;28;20249;-72
2022/09/03 05:24:17;;;;;;;9.17;7.23;;;12.10;99.90;;;;;;5068391;28;20326;-74
2022/09/03 05:26:44;;;;;;;9.33;6.60;;;12.10;99.90;;;;;;5066836;28;20310;-72
2022/09/03 05:29:11;;;;;;;9.77;7.37;;;12.20;99.90;;;;;;5075992;28;20211;-72
2022/09/03 05:31:38;;;;;;;7.73;6.87;;;12.20;99.90;;;;;;5075664;28;20552;-74
2022/09/03 05:34:07;;;;;;;8.03;6.60;;;12.20;99.90;;;;;;5083185;28;20201;-73
2022/09/03 05:36:36;;;;;;;7.40;6.67;;;12.30;99.90;;;;;;5078487;28;20228;-72
2022/09/03 05:39:04;;;;;;;7.90;7.10;;;12.40;99.90;;;;;;5066291;28;20205;-73
2022/09/03 05:41:35;;;;;;;11.13;6.60;;;12.30;99.90;;;;;;5082670;28;20322;-72
2022/09/03 05:44:03;;;;;;;9.57;6.33;;;12.40;99.90;;;;;;5080156;28;20229;-72
2022/09/03 05:46:31;;;;;;;8.53;6.90;;;12.60;99.90;;;;;;5077186;28;20220;-74
2022/09/03 05:49:03;;;;;;;9.87;7.53;;;12.70;99.90;;;;;;5057896;28;20200;-73
2022/09/03 05:51:31;;;;;;;6.80;6.17;;;12.60;99.90;;;;;;5063290;28;20701;-74
2022/09/03 05:53:58;;;;;;;7.50;6.80;;;12.70;99.90;;;;;;5075754;28;20677;-73
2022/09/03 05:56:29;;;;;;;7.13;6.43;;;12.80;99.90;;;;;;5075284;28;20234;-74
2022/09/03 05:59:00;;;;;;;7.37;6.40;;;12.80;99.90;;;;;;5055807;28;20300;-72
2022/09/03 06:01:33;;;;;;;7.20;6.10;;;12.90;99.90;;;;;;5080916;28;20713;-72
2022/09/03 06:04:07;;;;;;;6.97;6.27;;;13.00;99.90;;;;;;5074640;28;20965;-74
2022/09/03 06:06:36;;;;;;;7.20;6.57;;;13.10;99.90;;;;;;5060866;28;20215;-71
2022/09/03 06:09:06;;;;;;;7.57;5.80;;;13.10;99.90;;;;;;5061380;28;20206;-72
2022/09/03 06:11:35;;;;;;;7.20;6.07;;;13.20;99.90;;;;;;5062944;28;20211;-72
2022/09/03 06:14:07;;;;;;;6.60;6.00;;;13.30;99.90;;;;;;5062958;28;20226;-73
2022/09/03 06:16:37;;;;;;;7.47;6.77;;;13.30;99.90;;;;;;5071867;28;20214;-71
2022/09/03 06:19:09;;;;;;;6.93;5.40;;;13.40;99.90;;;;;;5076635;28;20216;-73
2022/09/03 06:21:44;;;;;;;7.07;5.17;;;13.60;99.90;;;;;;5056965;28;20274;-71
2022/09/03 06:24:15;;;;;;;6.17;5.57;;;13.60;99.90;;;;;;5060249;28;20215;-73
2022/09/03 06:26:42;;;;;;;6.90;4.90;;;13.70;99.90;;;;;;5062920;28;21038;-74
2022/09/03 06:29:10;;;;;;;6.37;5.67;;;13.80;99.90;;;;;;5075610;28;20200;-74
2022/09/03 06:31:38;;;;;;;5.93;5.43;;;13.90;99.90;;;;;;5067492;28;20702;-73
2022/09/03 06:34:06;;;;;;;9.83;4.83;;;14.10;99.90;;;;;;5081788;28;20204;-71
2022/09/03 06:36:36;;;;;;;7.00;4.53;;;14.70;99.90;;;;;;5081651;28;20253;-75
2022/09/03 06:39:04;;;;;;;5.50;4.03;;;15.40;99.90;;;;;;5086180;28;20212;-78
2022/09/03 06:41:33;;;;;;;7.30;3.20;;;16.50;99.90;;;;;;5067130;28;20673;-75
2022/09/03 06:44:10;;;;;;;2.30;2.10;;;17.70;99.90;;;;;;5081784;28;20220;-72
2022/09/03 06:46:41;;;;;;;2.03;1.92;;;18.90;99.90;;;;;;5084711;28;20719;-74
2022/09/03 06:49:12;;;;;;;2.10;1.85;;;20.10;99.90;;;;;;5081918;28;20725;-76
2022/09/03 06:51:40;;;;;;;4.53;1.80;;;21.10;99.90;;;;;;5083849;28;20228;-75
2022/09/03 06:54:09;;;;;;;3.58;1.83;;;21.90;99.90;;;;;;5071962;28;20537;-78
2022/09/03 06:56:38;;;;;;;2.05;1.40;;;22.40;99.90;;;;;;5083441;28;20598;-74
2022/09/03 06:59:12;;;;;;;2.53;1.38;;;22.90;99.90;;;;;;5071234;28;20212;-77
2022/09/03 07:01:40;;;;;;;2.40;1.73;;;23.20;99.90;;;;;;5087363;28;20547;-76
2022/09/03 07:04:12;;;;;;;2.60;1.63;;;23.40;99.90;;;;;;5087223;28;20240;-78
2022/09/03 07:06:41;;;;;;;2.60;1.50;;;23.40;98.80;;;;;;5073840;28;20230;-78
2022/09/03 07:09:52;;;;;;;3.10;1.38;;;23.30;97.90;;;;;;5085335;28;20570;-77
2022/09/03 07:12:24;;;;;;;2.08;1.52;;;22.90;97.30;;;;;;5072683;28;20236;-76
2022/09/03 07:14:54;;;;;;;2.88;1.60;;;22.50;98.00;;;;;;5072940;28;20211;-77
2022/09/03 07:17:32;;;;;;;2.10;1.50;;;22.40;97.80;;;;;;5084594;28;20204;-78
2022/09/03 07:20:36;;;;;;;2.55;1.30;;;22.20;97.60;;;;;;5068534;28;20216;-78
2022/09/03 07:23:03;;;;;;;1.60;1.40;;;22.30;97.40;;;;;;5070822;28;20334;-76
2022/09/03 07:25:53;;;;;;;2.55;1.77;;;22.30;97.50;;;;;;5088404;28;20585;-77
2022/09/03 07:28:20;;;;;;;4.13;1.58;;;22.40;97.40;;;;;;5068770;28;20204;-78
2022/09/03 07:30:47;;;;;;;2.85;1.60;;;22.60;97.40;;;;;;5069679;28;20246;-78
2022/09/03 07:33:18;;;;;;;2.65;1.20;;;22.90;97.10;;;;;;5068309;28;20238;-79
2022/09/03 07:35:47;;;;;;;5.97;1.52;;;23.30;96.70;;;;;;5064890;28;20534;-79
2022/09/03 07:38:22;;;;;;;4.13;1.50;;;23.70;96.00;;;;;;5079276;28;20216;-77
2022/09/03 07:41:04;;;;;;;3.00;1.85;;;24.00;94.70;;;;;;5067992;28;20203;-77
2022/09/03 07:43:47;;;;;;;3.58;1.65;;;24.30;94.30;;;;;;5085463;28;20707;-78
2022/09/03 07:46:23;;;;;;;2.47;1.30;;;24.50;93.70;;;;;;5091591;28;20221;-77
2022/09/03 07:49:39;;;;;;;3.33;1.40;;;24.80;93.10;;;;;;5071076;28;20650;-78
2022/09/03 07:52:33;;;;;;;3.22;1.48;;;25.10;91.80;;;;;;5076079;28;20620;-79
2022/09/03 07:55:01;;;;;;;2.10;1.58;;;25.40;91.50;;;;;;5073983;28;20299;-78
2022/09/03 08:01:31;;;;;;;2.50;1.35;;;26.20;89.20;;;;;;5096614;22;20259;-78
2022/09/03 08:12:30;;;;;;;3.75;1.40;;;26.90;86.80;;;;;;5100818;22;20230;-79
2022/09/03 08:15:55;;;;;;;3.00;1.50;;;27.00;84.70;;;;;;5072328;28;20205;-82
2022/09/03 08:29:23;;;;;;;6.35;2.13;;;27.30;83.10;;;;;;5490683;23;20228;-85
2022/09/03 08:31:51;;;;;;;2.20;1.58;;;27.40;82.10;;;;;;4987951;28;20307;-83
2022/09/03 08:34:25;;;;;;;3.28;1.48;;;27.50;80.70;;;;;;4960403;28;20216;-82
2022/09/03 08:36:53;;;;;;;3.35;1.60;;;27.60;80.50;;;;;;4966463;28;20217;-86
2022/09/03 08:39:22;;;;;;;2.58;1.20;;;27.80;80.70;;;;;;4978876;28;20207;-84
2022/09/03 08:41:50;;;;;;;4.53;1.55;;;27.90;79.80;;;;;;4973593;28;20270;-83
2022/09/03 08:44:44;;;;;;;2.78;1.40;;;28.10;78.90;;;;;;4999776;28;20262;-83
2022/09/03 08:47:33;;;;;;;1.42;1.30;;;28.10;78.10;;;;;;4987862;28;20216;-84
2022/09/03 08:50:21;;;;;;;2.58;1.30;;;28.10;78.20;;;;;;4992753;28;20211;-84
2022/09/03 08:53:12;;;;;;;3.03;1.52;;;28.00;77.40;;;;;;4977602;28;20223;-87
2022/09/03 08:56:06;;;;;;;3.25;1.23;;;28.00;77.50;;;;;;4997670;28;20222;-83
2022/09/03 08:58:37;;;;;;;1.85;1.20;;;28.00;77.20;;;;;;4997594;28;20207;-85
2022/09/03 09:01:16;;;;;;;2.78;1.30;;;28.00;78.10;;;;;;5004221;28;20258;-85
2022/09/03 09:03:51;;;;;;;1.63;1.25;;;28.10;77.90;;;;;;4998223;28;20301;-85
2022/09/03 09:06:44;;;;;;;1.85;1.25;;;28.10;77.50;;;;;;4985044;28;20265;-83
2022/09/03 09:09:33;;;;;;;1.98;1.50;;;28.00;76.30;;;;;;4986262;28;20234;-85
2022/09/03 09:12:29;;;;;;;8.07;1.30;;;27.90;77.20;;;;;;4980475;28;20222;-85
2022/09/03 09:15:11;;;;;;;3.90;1.48;;;27.90;76.40;;;;;;4979850;28;20219;-85
2022/09/03 09:18:15;;;;;;;3.42;1.40;;;27.90;76.60;;;;;;5023701;28;20630;-85
2022/09/03 09:20:48;;;;;;;4.07;1.20;;;28.00;76.20;;;;;;5010289;28;20186;-82
2022/09/03 09:23:35;;;;;;;5.82;1.70;;;28.00;76.10;;;;;;4968918;28;20242;-84
2022/09/03 09:26:20;;;;;;;4.47;1.60;;;28.00;75.60;;;;;;4997713;28;20203;-84
2022/09/03 09:28:56;;;;;;;2.28;1.70;;;28.00;75.60;;;;;;5007279;28;20307;-84
2022/09/03 09:31:38;;;;;;;1.90;1.20;;;27.90;75.30;;;;;;5038007;28;20266;-84
2022/09/03 09:34:23;;;;;;;3.10;1.60;;;27.80;75.20;;;;;;5008224;28;20217;-81
2022/09/03 09:36:54;;;;;;;3.30;1.50;;;27.90;75.40;;;;;;5022008;28;20650;-81
2022/09/03 09:39:22;;;;;;;2.00;1.20;;;27.80;75.70;;;;;;5017330;28;20201;-82
2022/09/03 09:42:19;;;;;;;3.95;1.35;;;27.80;75.00;;;;;;5036227;28;20209;-83
2022/09/03 09:44:57;;;;;;;2.17;1.30;;;27.80;75.00;;;;;;5028181;28;20694;-82
2022/09/03 09:47:37;;;;;;;4.07;1.65;;;27.80;75.30;;;;;;5015805;28;20221;-84
2022/09/03 09:50:16;;;;;;;4.60;1.42;;;27.80;75.60;;;;;;5029963;28;20581;-80
2022/09/03 09:53:13;;;;;;;2.50;1.30;;;27.90;74.80;;;;;;5012190;28;20706;-80
2022/09/03 09:55:55;;;;;;;3.65;1.40;;;28.50;72.90;;;;;;5013511;28;20189;-84
2022/09/03 09:58:24;;;;;;;4.43;1.23;;;28.50;73.80;;;;;;5035831;28;21051;-82
2022/09/03 10:01:21;;;;;;;3.40;1.40;;;28.20;73.70;;;;;;5013482;28;20202;-82
2022/09/03 10:04:00;;;;;;;2.15;1.05;;;28.10;74.00;;;;;;5013417;28;20224;-85
2022/09/03 10:09:16;;;;;;;4.32;1.55;;;28.10;73.60;;;;;;5029849;28;20221;-81
2022/09/03 10:11:54;;;;;;;4.35;1.20;;;28.10;73.50;;;;;;5017013;28;20205;-81
2022/09/03 10:14:35;;;;;;;3.97;1.35;;;28.10;74.10;;;;;;5006624;28;20210;-84
2022/09/03 10:17:23;;;;;;;3.85;1.27;;;28.20;73.40;;;;;;5030219;28;20207;-82
2022/09/03 10:20:29;;;;;;;2.60;1.42;;;28.10;73.10;;;;;;5011460;28;20656;-84
2022/09/03 10:23:05;;;;;;;2.05;1.20;;;27.80;73.10;;;;;;5024736;28;20232;-84
2022/09/03 10:26:05;;;;;;;4.45;1.45;;;27.60;73.50;;;;;;5015083;28;20201;-83
2022/09/03 10:28:40;;;;;;;2.13;1.13;;;27.60;72.70;;;;;;5028362;28;20253;-82
2022/09/03 10:31:16;;;;;;;1.95;1.30;;;27.50;73.50;;;;;;4994632;28;20588;-84
2022/09/03 10:33:57;;;;;;;2.75;1.30;;;27.60;73.40;;;;;;4998387;28;20212;-82
2022/09/03 10:36:43;;;;;;;4.22;1.60;;;27.70;73.30;;;;;;4990778;28;20264;-81
2022/09/03 10:39:39;;;;;;;5.53;1.48;;;27.60;73.00;;;;;;5000016;28;20214;-80
2022/09/03 10:42:46;;;;;;;3.95;1.35;;;27.50;73.10;;;;;;4993867;28;20257;-83
2022/09/03 10:45:27;;;;;;;3.10;1.20;;;27.50;72.30;;;;;;5008324;28;20213;-82
2022/09/03 10:48:37;;;;;;;1.65;1.10;;;27.40;73.60;;;;;;4988538;28;20199;-83
2022/09/03 10:51:10;;;;;;;3.50;1.67;;;27.40;72.10;;;;;;4990287;28;20713;-82
2022/09/03 10:54:04;;;;;;;2.75;1.35;;;27.40;73.20;;;;;;4990428;28;20206;-83
2022/09/03 10:56:36;;;;;;;5.97;1.30;;;27.40;71.90;;;;;;4980500;28;20233;-81
2022/09/03 10:59:15;;;;;;;3.65;1.50;;;27.40;72.50;;;;;;5015966;28;20210;-83
2022/09/03 11:02:20;;;;;;;3.22;1.58;;;27.30;72.30;;;;;;5017899;28;20330;-82
2022/09/03 11:05:17;;;;;;;3.60;1.58;;;27.20;72.50;;;;;;5005750;28;20512;-81
2022/09/03 11:07:48;;;;;;;5.80;1.67;;;27.30;72.30;;;;;;5017209;28;20198;-84
2022/09/03 11:10:25;;;;;;;6.07;1.48;;;27.40;74.70;;;;;;5016193;28;20444;-82
2022/09/03 11:13:09;;;;;;;1.88;1.40;;;28.00;79.90;;;;;;5036160;28;20210;-83
2022/09/03 11:16:00;;;;;;;1.75;1.30;;;27.90;72.80;;;;;;5021278;28;20275;-83
2022/09/03 11:18:42;;;;;;;1.30;1.10;;;27.70;71.70;;;;;;5022771;28;20209;-86
2022/09/03 11:21:22;;;;;;;4.00;1.52;;;27.60;71.40;;;;;;5012257;28;20222;-84
2022/09/03 11:24:14;;;;;;;1.42;1.10;;;27.70;71.50;;;;;;5017311;28;20231;-84
2022/09/03 11:26:50;;;;;;;1.95;1.30;;;27.70;71.50;;;;;;5009804;28;20670;-83
2022/09/03 11:29:29;;;;;;;3.80;1.30;;;27.90;71.20;;;;;;5021242;28;20757;-85
2022/09/03 11:32:07;;;;;;;2.50;1.20;;;27.90;70.80;;;;;;5018292;28;20233;-84
2022/09/03 11:34:53;;;;;;;5.70;1.60;;;28.10;71.00;;;;;;5001216;28;20222;-82
2022/09/03 11:37:28;;;;;;;4.25;1.35;;;28.20;70.20;;;;;;5018600;28;20285;-85
2022/09/03 11:40:28;;;;;;;2.55;1.20;;;28.30;69.70;;;;;;5001773;28;20201;-84
2022/09/03 11:43:25;;;;;;;2.50;1.20;;;28.10;69.30;;;;;;5009356;28;20257;-84
2022/09/03 11:46:10;;;;;;;2.00;1.23;;;28.20;69.80;;;;;;5000062;28;20294;-84
2022/09/03 11:49:12;;;;;;;2.45;1.30;;;28.20;69.20;;;;;;5002385;28;20206;-83
2022/09/03 11:51:43;;;;;;;8.02;1.55;;;28.30;68.70;;;;;;5009838;28;20223;-85
2022/09/03 11:54:22;;;;;;;3.65;1.50;;;28.40;69.80;;;;;;5012432;28;20213;-84
2022/09/03 11:56:51;;;;;;;1.80;1.20;;;28.30;69.30;;;;;;4995844;28;20210;-86
2022/09/03 11:59:25;;;;;;;3.08;1.27;;;28.40;69.10;;;;;;5003473;28;20202;-84
2022/09/03 12:02:04;;;;;;;2.22;1.02;;;28.40;69.20;;;;;;5015843;28;20221;-83
2022/09/03 12:04:42;;;;;;;3.88;1.70;;;28.50;68.70;;;;;;5008526;28;20231;-83
2022/09/03 12:07:31;;;;;;;3.97;1.60;;;28.60;68.60;;;;;;5012577;28;20228;-85
2022/09/03 12:10:08;;;;;;;2.17;1.25;;;28.60;68.60;;;;;;5008907;28;20406;-84
2022/09/03 12:12:59;;;;;;;1.38;1.20;;;28.70;68.80;;;;;;4990290;28;20214;-83
2022/09/03 12:16:20;;;;;;;;;;;;;;;;;;;;;
2022/09/03 12:18:51;;;;;;;1.80;1.20;;;28.90;69.00;;;;;;5012264;28;20938;-82
2022/09/03 12:21:19;;;;;;;2.17;1.40;;;28.90;68.60;;;;;;5011797;28;20226;-85
2022/09/03 12:23:48;;;;;;;1.75;1.20;;;28.80;67.90;;;;;;5000032;28;20262;-82
2022/09/03 12:26:19;;;;;;;2.50;1.20;;;28.90;67.80;;;;;;4992376;28;20682;-82
2022/09/03 12:28:59;;;;;;;1.50;1.13;;;28.90;67.20;;;;;;5002752;28;20240;-83
2022/09/03 12:31:29;;;;;;;2.58;1.15;;;29.00;67.50;;;;;;5034404;28;20275;-85
2022/09/03 12:34:13;;;;;;;2.92;1.20;;;29.10;67.50;;;;;;5025385;28;20257;-82
2022/09/03 12:36:43;;;;;;;2.03;1.38;;;29.10;68.20;;;;;;5042159;28;20226;-84
2022/09/03 12:39:17;;;;;;;1.80;1.38;;;29.20;69.60;;;;;;5037528;28;20206;-82
2022/09/03 12:41:54;;;;;;;3.08;1.33;;;29.10;68.00;;;;;;5030814;28;20231;-82
2022/09/03 12:44:30;;;;;;;1.98;1.45;;;29.30;68.30;;;;;;5034771;28;20256;-84
2022/09/03 12:47:10;;;;;;;2.25;1.50;;;29.30;68.10;;;;;;5042548;28;20330;-83
2022/09/03 12:50:06;;;;;;;3.28;1.73;;;29.40;67.50;;;;;;5024349;28;20205;-82
2022/09/03 12:52:41;;;;;;;4.70;1.35;;;29.30;67.10;;;;;;5036125;28;20329;-81
2022/09/03 12:55:14;;;;;;;2.47;1.52;;;29.40;66.90;;;;;;5038400;28;20212;-81
2022/09/03 12:58:19;;;;;;;1.45;1.35;;;29.50;66.70;;;;;;5039785;28;20264;-85
2022/09/03 13:01:03;;;;;;;3.10;1.35;;;29.40;66.50;;;;;;4914466;29;20302;-84
2022/09/03 13:03:53;;;;;;;2.88;1.55;;;29.40;66.90;;;;;;5028192;28;20299;-85
2022/09/03 13:06:25;;;;;;;1.88;1.27;;;29.40;66.60;;;;;;5038184;28;20221;-86
2022/09/03 13:09:04;;;;;;;4.53;1.77;;;29.50;66.70;;;;;;5024154;28;20201;-84
2022/09/03 13:11:38;;;;;;;4.53;1.40;;;29.60;66.60;;;;;;5036523;28;20233;-85
2022/09/03 13:15:10;;;;;;;;;;;;;;;;;;;;;
2022/09/03 13:17:55;;;;;;;2.10;1.42;;;29.70;65.60;;;;;;5038723;28;20262;-85
2022/09/03 13:21:11;;;;;;;2.95;1.27;;;29.60;65.80;;;;;;5043019;28;20197;-85
2022/09/03 13:24:27;;;;;;;4.15;1.48;;;29.60;65.60;;;;;;5061753;28;20260;-84
2022/09/03 13:27:00;;;;;;;3.88;1.45;;;29.60;65.60;;;;;;5050270;28;20235;-84
2022/09/03 13:29:54;;;;;;;3.88;1.20;;;29.70;65.90;;;;;;5044423;28;20259;-85
2022/09/03 13:32:43;;;;;;;2.63;1.38;;;29.80;65.80;;;;;;5054229;28;20225;-86
2022/09/03 13:35:55;;;;;;;2.92;1.55;;;29.90;65.30;;;;;;5039214;28;20205;-85
2022/09/03 13:38:40;;;;;;;3.05;1.45;;;29.80;65.40;;;;;;4935243;28;20223;-85
2022/09/03 13:41:40;;;;;;;2.78;1.38;;;29.60;66.20;;;;;;4959198;28;20211;-84
2022/09/03 13:44:38;;;;;;;2.00;1.50;;;29.30;66.70;;;;;;4933566;28;20243;-85
2022/09/03 13:47:08;;;;;;;2.80;1.77;;;29.20;67.00;;;;;;4943932;28;20209;-87
2022/09/03 13:50:25;;;;;;;3.58;1.50;;;29.20;67.30;;;;;;4942826;28;20220;-85
2022/09/03 13:53:25;;;;;;;4.15;1.70;;;29.30;66.80;;;;;;4955003;28;20221;-84
2022/09/03 13:55:56;;;;;;;1.88;1.30;;;29.40;66.80;;;;;;4953580;28;21058;-86
2022/09/03 13:58:30;;;;;;;3.60;1.60;;;29.50;66.80;;;;;;4952346;28;20228;-85
2022/09/03 14:00:57;;;;;;;3.60;1.70;;;29.60;66.20;;;;;;4950575;28;20253;-85
2022/09/03 14:04:07;;;;;;;2.38;1.35;;;29.60;65.90;;;;;;4942213;28;20251;-86
2022/09/03 14:06:43;;;;;;;2.70;1.45;;;29.70;65.90;;;;;;4956213;28;20244;-85
2022/09/03 14:09:33;;;;;;;1.95;1.63;;;29.80;65.70;;;;;;4965492;28;20211;-84
2022/09/03 14:12:18;;;;;;;2.58;1.70;;;30.00;64.90;;;;;;5031055;28;20214;-85
2022/09/03 14:14:58;;;;;;;1.73;1.33;;;30.00;64.40;;;;;;5018464;28;20213;-84